Terminal Aerodrome Forecast
Issued by NWS

Home | Current Version | Previous Version | Text Only | Print | Product List | Glossary On
Versions: 1 2 3 4 5 6 7 8 9 10 11 12 13 14
000
FTUS46 KPDT 242300
TAFRDM
TAF
KRDM 242320Z 2500/2524 16007KT P6SM BKN150
     FM250600 14004KT P6SM SCT180
     FM251800 17007KT P6SM FEW180=

USA.gov is the U.S. government's official web portal to all federal, state and local government web resources and services.